sensor_id;sensor_type;location;lat;lon;timestamp;P1;durP1;ratioP1;P2;durP2;ratioP2
77678;SDS011;66835;49.478;10.724;2024-01-30T00:01:11;12.65;;;8.55;;
77678;SDS011;66835;49.478;10.724;2024-01-30T00:03:36;14.30;;;10.27;;
77678;SDS011;66835;49.478;10.724;2024-01-30T00:06:02;14.82;;;8.75;;
77678;SDS011;66835;49.478;10.724;2024-01-30T00:08:28;12.90;;;8.23;;
77678;SDS011;66835;49.478;10.724;2024-01-30T00:10:53;15.30;;;8.93;;
77678;SDS011;66835;49.478;10.724;2024-01-30T00:13:19;17.50;;;10.63;;
77678;SDS011;66835;49.478;10.724;2024-01-30T00:15:46;16.65;;;9.73;;
77678;SDS011;66835;49.478;10.724;2024-01-30T00:18:11;15.98;;;9.68;;
77678;SDS011;66835;49.478;10.724;2024-01-30T00:20:37;14.68;;;9.82;;
77678;SDS011;66835;49.478;10.724;2024-01-30T00:23:03;13.73;;;9.05;;
77678;SDS011;66835;49.478;10.724;2024-01-30T00:25:28;15.73;;;9.90;;
77678;SDS011;66835;49.478;10.724;2024-01-30T00:27:54;14.07;;;8.87;;
77678;SDS011;66835;49.478;10.724;2024-01-30T00:30:19;13.07;;;8.97;;
77678;SDS011;66835;49.478;10.724;2024-01-30T00:32:46;16.25;;;8.82;;
77678;SDS011;66835;49.478;10.724;2024-01-30T00:35:12;16.17;;;10.32;;
77678;SDS011;66835;49.478;10.724;2024-01-30T00:37:37;12.93;;;9.07;;
77678;SDS011;66835;49.478;10.724;2024-01-30T00:40:03;16.00;;;10.98;;
77678;SDS011;66835;49.478;10.724;2024-01-30T00:42:31;14.85;;;9.32;;
77678;SDS011;66835;49.478;10.724;2024-01-30T00:44:56;15.65;;;10.05;;
77678;SDS011;66835;49.478;10.724;2024-01-30T00:47:22;16.88;;;9.30;;
77678;SDS011;66835;49.478;10.724;2024-01-30T00:49:49;14.97;;;9.17;;
77678;SDS011;66835;49.478;10.724;2024-01-30T00:52:14;14.95;;;9.85;;
77678;SDS011;66835;49.478;10.724;2024-01-30T00:54:40;15.13;;;9.30;;
77678;SDS011;66835;49.478;10.724;2024-01-30T00:57:06;11.98;;;8.77;;
77678;SDS011;66835;49.478;10.724;2024-01-30T00:59:32;13.23;;;9.25;;
77678;SDS011;66835;49.478;10.724;2024-01-30T01:01:57;16.75;;;9.95;;
77678;SDS011;66835;49.478;10.724;2024-01-30T01:04:22;15.07;;;9.30;;
77678;SDS011;66835;49.478;10.724;2024-01-30T01:06:49;13.85;;;9.15;;
77678;SDS011;66835;49.478;10.724;2024-01-30T01:09:15;15.52;;;10.18;;
77678;SDS011;66835;49.478;10.724;2024-01-30T01:11:40;14.43;;;9.93;;
77678;SDS011;66835;49.478;10.724;2024-01-30T01:14:05;21.20;;;11.60;;
77678;SDS011;66835;49.478;10.724;2024-01-30T01:16:31;17.30;;;9.60;;
77678;SDS011;66835;49.478;10.724;2024-01-30T01:18:58;17.17;;;9.75;;
77678;SDS011;66835;49.478;10.724;2024-01-30T01:21:25;16.38;;;9.75;;
77678;SDS011;66835;49.478;10.724;2024-01-30T01:23:52;13.13;;;8.52;;
77678;SDS011;66835;49.478;10.724;2024-01-30T01:26:17;17.33;;;10.32;;
77678;SDS011;66835;49.478;10.724;2024-01-30T01:28:43;16.48;;;9.85;;
77678;SDS011;66835;49.478;10.724;2024-01-30T01:31:08;16.77;;;9.87;;
77678;SDS011;66835;49.478;10.724;2024-01-30T01:33:34;15.05;;;8.77;;
77678;SDS011;66835;49.478;10.724;2024-01-30T01:36:00;21.48;;;9.93;;
77678;SDS011;66835;49.478;10.724;2024-01-30T01:38:29;15.07;;;9.15;;
77678;SDS011;66835;49.478;10.724;2024-01-30T01:40:55;15.07;;;9.05;;
77678;SDS011;66835;49.478;10.724;2024-01-30T01:43:21;14.63;;;9.85;;
77678;SDS011;66835;49.478;10.724;2024-01-30T01:45:46;13.67;;;8.93;;
77678;SDS011;66835;49.478;10.724;2024-01-30T01:48:12;15.90;;;10.27;;
77678;SDS011;66835;49.478;10.724;2024-01-30T01:50:38;15.27;;;9.40;;
77678;SDS011;66835;49.478;10.724;2024-01-30T01:53:03;15.80;;;9.60;;
77678;SDS011;66835;49.478;10.724;2024-01-30T01:55:30;13.75;;;9.55;;
77678;SDS011;66835;49.478;10.724;2024-01-30T01:57:57;18.75;;;9.45;;
77678;SDS011;66835;49.478;10.724;2024-01-30T02:00:22;16.05;;;9.85;;
77678;SDS011;66835;49.478;10.724;2024-01-30T02:02:48;15.30;;;10.30;;
77678;SDS011;66835;49.478;10.724;2024-01-30T02:05:15;14.00;;;9.45;;
77678;SDS011;66835;49.478;10.724;2024-01-30T02:07:40;14.60;;;8.57;;
77678;SDS011;66835;49.478;10.724;2024-01-30T02:10:07;12.45;;;9.35;;
77678;SDS011;66835;49.478;10.724;2024-01-30T02:12:32;14.98;;;9.50;;
77678;SDS011;66835;49.478;10.724;2024-01-30T02:14:59;14.90;;;9.48;;
77678;SDS011;66835;49.478;10.724;2024-01-30T02:17:24;13.45;;;8.88;;
77678;SDS011;66835;49.478;10.724;2024-01-30T02:19:50;15.40;;;9.10;;
77678;SDS011;66835;49.478;10.724;2024-01-30T02:22:17;17.73;;;9.93;;
77678;SDS011;66835;49.478;10.724;2024-01-30T02:24:43;13.90;;;9.02;;
77678;SDS011;66835;49.478;10.724;2024-01-30T02:27:08;19.13;;;9.90;;
77678;SDS011;66835;49.478;10.724;2024-01-30T02:29:33;14.85;;;8.35;;
77678;SDS011;66835;49.478;10.724;2024-01-30T02:31:59;15.10;;;9.15;;
77678;SDS011;66835;49.478;10.724;2024-01-30T02:34:24;15.97;;;8.90;;
77678;SDS011;66835;49.478;10.724;2024-01-30T02:36:50;14.77;;;8.50;;
77678;SDS011;66835;49.478;10.724;2024-01-30T02:39:16;15.57;;;9.17;;
77678;SDS011;66835;49.478;10.724;2024-01-30T02:41:42;11.57;;;9.35;;
77678;SDS011;66835;49.478;10.724;2024-01-30T02:44:07;17.25;;;8.57;;
77678;SDS011;66835;49.478;10.724;2024-01-30T02:46:32;16.02;;;9.45;;
77678;SDS011;66835;49.478;10.724;2024-01-30T02:48:58;15.17;;;8.83;;
77678;SDS011;66835;49.478;10.724;2024-01-30T02:51:23;17.02;;;9.15;;
77678;SDS011;66835;49.478;10.724;2024-01-30T02:53:49;16.42;;;9.73;;
77678;SDS011;66835;49.478;10.724;2024-01-30T02:56:15;18.90;;;9.50;;
77678;SDS011;66835;49.478;10.724;2024-01-30T02:58:41;14.77;;;10.65;;
77678;SDS011;66835;49.478;10.724;2024-01-30T03:01:06;14.00;;;8.10;;
77678;SDS011;66835;49.478;10.724;2024-01-30T03:03:32;13.93;;;8.82;;
77678;SDS011;66835;49.478;10.724;2024-01-30T03:05:59;16.33;;;9.80;;
77678;SDS011;66835;49.478;10.724;2024-01-30T03:08:24;19.00;;;11.40;;
77678;SDS011;66835;49.478;10.724;2024-01-30T03:10:50;14.70;;;9.63;;
77678;SDS011;66835;49.478;10.724;2024-01-30T03:13:16;18.20;;;10.40;;
77678;SDS011;66835;49.478;10.724;2024-01-30T03:15:42;14.88;;;8.57;;
77678;SDS011;66835;49.478;10.724;2024-01-30T03:18:07;14.70;;;10.77;;
77678;SDS011;66835;49.478;10.724;2024-01-30T03:20:32;19.77;;;10.23;;
77678;SDS011;66835;49.478;10.724;2024-01-30T03:22:59;14.82;;;10.50;;
77678;SDS011;66835;49.478;10.724;2024-01-30T03:25:25;19.02;;;10.80;;
77678;SDS011;66835;49.478;10.724;2024-01-30T03:27:50;16.98;;;9.95;;
77678;SDS011;66835;49.478;10.724;2024-01-30T03:30:17;21.02;;;11.82;;
77678;SDS011;66835;49.478;10.724;2024-01-30T03:32:43;17.02;;;11.27;;
77678;SDS011;66835;49.478;10.724;2024-01-30T03:35:09;14.93;;;9.13;;
77678;SDS011;66835;49.478;10.724;2024-01-30T03:37:34;15.88;;;8.70;;
77678;SDS011;66835;49.478;10.724;2024-01-30T03:39:59;18.13;;;10.37;;
77678;SDS011;66835;49.478;10.724;2024-01-30T03:42:25;16.73;;;10.40;;
77678;SDS011;66835;49.478;10.724;2024-01-30T03:44:50;17.27;;;9.15;;
77678;SDS011;66835;49.478;10.724;2024-01-30T03:47:21;15.80;;;9.10;;
77678;SDS011;66835;49.478;10.724;2024-01-30T03:49:46;23.23;;;13.75;;
77678;SDS011;66835;49.478;10.724;2024-01-30T03:52:12;17.88;;;11.32;;
77678;SDS011;66835;49.478;10.724;2024-01-30T03:54:37;17.30;;;11.32;;
77678;SDS011;66835;49.478;10.724;2024-01-30T03:57:03;18.95;;;9.32;;
77678;SDS011;66835;49.478;10.724;2024-01-30T03:59:28;18.80;;;10.65;;
77678;SDS011;66835;49.478;10.724;2024-01-30T04:01:54;18.83;;;10.73;;
77678;SDS011;66835;49.478;10.724;2024-01-30T04:04:21;15.35;;;9.13;;
77678;SDS011;66835;49.478;10.724;2024-01-30T04:06:46;19.63;;;10.15;;
77678;SDS011;66835;49.478;10.724;2024-01-30T04:09:12;15.85;;;9.95;;
77678;SDS011;66835;49.478;10.724;2024-01-30T04:11:38;15.35;;;9.70;;
77678;SDS011;66835;49.478;10.724;2024-01-30T04:14:03;16.48;;;9.68;;
77678;SDS011;66835;49.478;10.724;2024-01-30T04:16:28;16.10;;;9.97;;
77678;SDS011;66835;49.478;10.724;2024-01-30T04:18:54;16.60;;;10.33;;
77678;SDS011;66835;49.478;10.724;2024-01-30T04:21:21;19.42;;;9.45;;
77678;SDS011;66835;49.478;10.724;2024-01-30T04:23:47;15.98;;;9.05;;
77678;SDS011;66835;49.478;10.724;2024-01-30T04:26:13;16.10;;;9.05;;
77678;SDS011;66835;49.478;10.724;2024-01-30T04:28:38;14.25;;;8.30;;
77678;SDS011;66835;49.478;10.724;2024-01-30T04:31:04;17.20;;;8.73;;
77678;SDS011;66835;49.478;10.724;2024-01-30T04:33:29;15.27;;;8.32;;
77678;SDS011;66835;49.478;10.724;2024-01-30T04:35:54;13.68;;;8.93;;
77678;SDS011;66835;49.478;10.724;2024-01-30T04:38:21;13.88;;;8.82;;
77678;SDS011;66835;49.478;10.724;2024-01-30T04:40:46;13.15;;;8.88;;
77678;SDS011;66835;49.478;10.724;2024-01-30T04:43:12;17.17;;;9.80;;
77678;SDS011;66835;49.478;10.724;2024-01-30T04:45:37;14.23;;;8.50;;
77678;SDS011;66835;49.478;10.724;2024-01-30T04:48:02;17.17;;;8.17;;
77678;SDS011;66835;49.478;10.724;2024-01-30T04:50:28;12.80;;;7.35;;
77678;SDS011;66835;49.478;10.724;2024-01-30T04:52:54;12.52;;;7.75;;
77678;SDS011;66835;49.478;10.724;2024-01-30T04:55:21;14.87;;;8.67;;
77678;SDS011;66835;49.478;10.724;2024-01-30T04:57:46;11.95;;;7.70;;
77678;SDS011;66835;49.478;10.724;2024-01-30T05:00:12;15.82;;;8.35;;
77678;SDS011;66835;49.478;10.724;2024-01-30T05:02:38;12.63;;;7.90;;
77678;SDS011;66835;49.478;10.724;2024-01-30T05:05:04;15.82;;;8.52;;
77678;SDS011;66835;49.478;10.724;2024-01-30T05:07:29;17.73;;;10.70;;
77678;SDS011;66835;49.478;10.724;2024-01-30T05:09:55;21.52;;;12.45;;
77678;SDS011;66835;49.478;10.724;2024-01-30T05:12:22;19.93;;;12.13;;
77678;SDS011;66835;49.478;10.724;2024-01-30T05:14:47;19.48;;;10.75;;
77678;SDS011;66835;49.478;10.724;2024-01-30T05:17:12;15.87;;;9.13;;
77678;SDS011;66835;49.478;10.724;2024-01-30T05:19:38;14.38;;;8.45;;
77678;SDS011;66835;49.478;10.724;2024-01-30T05:22:04;19.13;;;10.10;;
77678;SDS011;66835;49.478;10.724;2024-01-30T05:24:29;19.88;;;10.32;;
77678;SDS011;66835;49.478;10.724;2024-01-30T05:26:55;31.30;;;13.30;;
77678;SDS011;66835;49.478;10.724;2024-01-30T05:29:21;18.17;;;10.00;;
77678;SDS011;66835;49.478;10.724;2024-01-30T05:31:48;16.98;;;10.65;;
77678;SDS011;66835;49.478;10.724;2024-01-30T05:34:13;17.20;;;11.07;;
77678;SDS011;66835;49.478;10.724;2024-01-30T05:36:39;28.48;;;13.70;;
77678;SDS011;66835;49.478;10.724;2024-01-30T05:39:04;28.05;;;15.23;;
77678;SDS011;66835;49.478;10.724;2024-01-30T05:41:30;32.38;;;14.27;;
77678;SDS011;66835;49.478;10.724;2024-01-30T05:43:55;23.85;;;12.63;;
77678;SDS011;66835;49.478;10.724;2024-01-30T05:46:22;24.00;;;12.30;;
77678;SDS011;66835;49.478;10.724;2024-01-30T05:48:47;23.63;;;11.77;;
77678;SDS011;66835;49.478;10.724;2024-01-30T05:51:12;19.77;;;10.53;;
77678;SDS011;66835;49.478;10.724;2024-01-30T05:53:38;21.25;;;12.48;;
77678;SDS011;66835;49.478;10.724;2024-01-30T05:56:04;21.73;;;12.57;;
77678;SDS011;66835;49.478;10.724;2024-01-30T05:58:30;17.13;;;10.45;;
77678;SDS011;66835;49.478;10.724;2024-01-30T06:00:56;18.65;;;8.90;;
77678;SDS011;66835;49.478;10.724;2024-01-30T06:03:23;16.67;;;9.52;;
77678;SDS011;66835;49.478;10.724;2024-01-30T06:05:48;17.52;;;10.05;;
77678;SDS011;66835;49.478;10.724;2024-01-30T06:08:13;14.95;;;9.45;;
77678;SDS011;66835;49.478;10.724;2024-01-30T06:10:39;14.70;;;9.32;;
77678;SDS011;66835;49.478;10.724;2024-01-30T06:13:05;21.95;;;10.88;;
77678;SDS011;66835;49.478;10.724;2024-01-30T06:15:30;18.35;;;10.05;;
77678;SDS011;66835;49.478;10.724;2024-01-30T06:17:57;17.73;;;10.20;;
77678;SDS011;66835;49.478;10.724;2024-01-30T06:20:24;17.77;;;10.18;;
77678;SDS011;66835;49.478;10.724;2024-01-30T06:22:49;27.45;;;13.68;;
77678;SDS011;66835;49.478;10.724;2024-01-30T06:25:15;28.10;;;14.32;;
77678;SDS011;66835;49.478;10.724;2024-01-30T06:27:41;21.63;;;12.73;;
77678;SDS011;66835;49.478;10.724;2024-01-30T06:30:07;28.90;;;14.50;;
77678;SDS011;66835;49.478;10.724;2024-01-30T06:32:33;29.98;;;17.13;;
77678;SDS011;66835;49.478;10.724;2024-01-30T06:34:59;27.60;;;13.85;;
77678;SDS011;66835;49.478;10.724;2024-01-30T06:37:26;17.77;;;12.43;;
77678;SDS011;66835;49.478;10.724;2024-01-30T06:39:52;19.23;;;11.48;;
77678;SDS011;66835;49.478;10.724;2024-01-30T06:42:17;17.65;;;9.57;;
77678;SDS011;66835;49.478;10.724;2024-01-30T06:44:43;17.83;;;9.73;;
77678;SDS011;66835;49.478;10.724;2024-01-30T06:47:08;16.85;;;10.98;;
77678;SDS011;66835;49.478;10.724;2024-01-30T06:49:34;17.38;;;9.60;;
77678;SDS011;66835;49.478;10.724;2024-01-30T06:51:59;17.88;;;11.00;;
77678;SDS011;66835;49.478;10.724;2024-01-30T06:54:26;24.80;;;11.47;;
77678;SDS011;66835;49.478;10.724;2024-01-30T06:56:51;20.80;;;10.57;;
77678;SDS011;66835;49.478;10.724;2024-01-30T06:59:17;19.42;;;12.07;;
77678;SDS011;66835;49.478;10.724;2024-01-30T07:01:42;19.60;;;11.63;;
77678;SDS011;66835;49.478;10.724;2024-01-30T07:04:08;19.20;;;12.90;;
77678;SDS011;66835;49.478;10.724;2024-01-30T07:06:33;20.57;;;12.10;;
77678;SDS011;66835;49.478;10.724;2024-01-30T07:08:58;22.13;;;12.73;;
77678;SDS011;66835;49.478;10.724;2024-01-30T07:11:25;22.53;;;13.03;;
77678;SDS011;66835;49.478;10.724;2024-01-30T07:13:51;24.00;;;14.07;;
77678;SDS011;66835;49.478;10.724;2024-01-30T07:16:17;21.05;;;12.32;;
77678;SDS011;66835;49.478;10.724;2024-01-30T07:18:42;19.38;;;10.95;;
77678;SDS011;66835;49.478;10.724;2024-01-30T07:21:08;20.25;;;12.88;;
77678;SDS011;66835;49.478;10.724;2024-01-30T07:23:33;26.58;;;13.45;;
77678;SDS011;66835;49.478;10.724;2024-01-30T07:25:59;20.23;;;12.63;;
77678;SDS011;66835;49.478;10.724;2024-01-30T07:28:26;19.63;;;13.50;;
77678;SDS011;66835;49.478;10.724;2024-01-30T07:30:51;19.45;;;13.82;;
77678;SDS011;66835;49.478;10.724;2024-01-30T07:33:17;18.53;;;13.60;;
77678;SDS011;66835;49.478;10.724;2024-01-30T07:35:42;22.58;;;12.90;;
77678;SDS011;66835;49.478;10.724;2024-01-30T07:38:08;18.95;;;10.82;;
77678;SDS011;66835;49.478;10.724;2024-01-30T07:40:33;21.10;;;10.48;;
77678;SDS011;66835;49.478;10.724;2024-01-30T07:42:59;15.25;;;10.80;;
77678;SDS011;66835;49.478;10.724;2024-01-30T07:45:27;19.08;;;12.32;;
77678;SDS011;66835;49.478;10.724;2024-01-30T07:47:57;15.70;;;10.38;;
77678;SDS011;66835;49.478;10.724;2024-01-30T07:50:22;16.77;;;10.68;;
77678;SDS011;66835;49.478;10.724;2024-01-30T07:52:48;17.90;;;11.27;;
77678;SDS011;66835;49.478;10.724;2024-01-30T07:55:16;20.52;;;10.63;;
77678;SDS011;66835;49.478;10.724;2024-01-30T07:57:41;16.65;;;10.30;;
77678;SDS011;66835;49.478;10.724;2024-01-30T08:00:08;16.67;;;10.55;;
77678;SDS011;66835;49.478;10.724;2024-01-30T08:02:35;15.63;;;10.52;;
77678;SDS011;66835;49.478;10.724;2024-01-30T08:05:00;16.13;;;10.90;;
77678;SDS011;66835;49.478;10.724;2024-01-30T08:07:26;16.23;;;10.07;;
77678;SDS011;66835;49.478;10.724;2024-01-30T08:09:54;20.88;;;10.57;;
77678;SDS011;66835;49.478;10.724;2024-01-30T08:12:20;13.40;;;9.90;;
77678;SDS011;66835;49.478;10.724;2024-01-30T08:14:45;20.55;;;11.52;;
77678;SDS011;66835;49.478;10.724;2024-01-30T08:17:10;16.13;;;11.10;;
77678;SDS011;66835;49.478;10.724;2024-01-30T08:19:37;17.43;;;10.77;;
77678;SDS011;66835;49.478;10.724;2024-01-30T08:22:02;20.85;;;11.38;;
77678;SDS011;66835;49.478;10.724;2024-01-30T08:24:28;15.88;;;10.75;;
77678;SDS011;66835;49.478;10.724;2024-01-30T08:26:53;18.20;;;9.87;;
77678;SDS011;66835;49.478;10.724;2024-01-30T08:29:19;17.15;;;10.98;;
77678;SDS011;66835;49.478;10.724;2024-01-30T08:31:44;20.70;;;9.95;;
77678;SDS011;66835;49.478;10.724;2024-01-30T08:34:11;19.17;;;11.30;;
77678;SDS011;66835;49.478;10.724;2024-01-30T08:36:38;19.83;;;13.05;;
77678;SDS011;66835;49.478;10.724;2024-01-30T08:39:03;18.15;;;12.18;;
77678;SDS011;66835;49.478;10.724;2024-01-30T08:41:30;21.50;;;12.60;;
77678;SDS011;66835;49.478;10.724;2024-01-30T08:43:55;20.67;;;12.30;;
77678;SDS011;66835;49.478;10.724;2024-01-30T08:46:21;19.85;;;13.38;;
77678;SDS011;66835;49.478;10.724;2024-01-30T08:48:46;21.80;;;13.20;;
77678;SDS011;66835;49.478;10.724;2024-01-30T08:51:12;23.48;;;13.60;;
77678;SDS011;66835;49.478;10.724;2024-01-30T08:53:39;20.08;;;13.65;;
77678;SDS011;66835;49.478;10.724;2024-01-30T08:56:05;19.48;;;12.32;;
77678;SDS011;66835;49.478;10.724;2024-01-30T08:58:31;20.65;;;13.57;;
77678;SDS011;66835;49.478;10.724;2024-01-30T09:00:57;23.80;;;14.30;;
77678;SDS011;66835;49.478;10.724;2024-01-30T09:03:22;25.33;;;14.60;;
77678;SDS011;66835;49.478;10.724;2024-01-30T09:05:47;21.90;;;13.03;;
77678;SDS011;66835;49.478;10.724;2024-01-30T09:08:13;21.17;;;13.57;;
77678;SDS011;66835;49.478;10.724;2024-01-30T09:10:40;21.73;;;13.30;;
77678;SDS011;66835;49.478;10.724;2024-01-30T09:13:06;21.25;;;12.98;;
77678;SDS011;66835;49.478;10.724;2024-01-30T09:15:31;21.10;;;13.33;;
77678;SDS011;66835;49.478;10.724;2024-01-30T09:17:56;19.95;;;13.82;;
77678;SDS011;66835;49.478;10.724;2024-01-30T09:20:22;23.13;;;15.13;;
77678;SDS011;66835;49.478;10.724;2024-01-30T09:22:48;22.10;;;13.80;;
77678;SDS011;66835;49.478;10.724;2024-01-30T09:25:14;25.52;;;16.27;;
77678;SDS011;66835;49.478;10.724;2024-01-30T09:27:41;22.35;;;14.40;;
77678;SDS011;66835;49.478;10.724;2024-01-30T09:30:07;23.73;;;14.23;;
77678;SDS011;66835;49.478;10.724;2024-01-30T09:32:33;24.52;;;15.18;;
77678;SDS011;66835;49.478;10.724;2024-01-30T09:34:58;21.38;;;14.93;;
77678;SDS011;66835;49.478;10.724;2024-01-30T09:37:23;19.83;;;13.32;;
77678;SDS011;66835;49.478;10.724;2024-01-30T09:39:49;23.48;;;14.13;;
77678;SDS011;66835;49.478;10.724;2024-01-30T09:42:17;21.73;;;14.00;;
77678;SDS011;66835;49.478;10.724;2024-01-30T09:44:47;24.63;;;15.30;;
77678;SDS011;66835;49.478;10.724;2024-01-30T09:47:15;30.08;;;16.48;;
77678;SDS011;66835;49.478;10.724;2024-01-30T09:49:41;23.17;;;14.93;;
77678;SDS011;66835;49.478;10.724;2024-01-30T09:52:07;23.13;;;14.68;;
77678;SDS011;66835;49.478;10.724;2024-01-30T09:54:33;26.73;;;16.17;;
77678;SDS011;66835;49.478;10.724;2024-01-30T09:56:59;24.50;;;14.93;;
77678;SDS011;66835;49.478;10.724;2024-01-30T09:59:24;26.00;;;14.52;;
77678;SDS011;66835;49.478;10.724;2024-01-30T10:01:51;23.00;;;14.32;;
77678;SDS011;66835;49.478;10.724;2024-01-30T10:04:17;24.02;;;13.80;;
77678;SDS011;66835;49.478;10.724;2024-01-30T10:06:42;39.97;;;22.30;;
77678;SDS011;66835;49.478;10.724;2024-01-30T10:09:07;34.20;;;19.98;;
77678;SDS011;66835;49.478;10.724;2024-01-30T10:11:34;30.25;;;16.88;;
77678;SDS011;66835;49.478;10.724;2024-01-30T10:13:59;25.38;;;15.05;;
77678;SDS011;66835;49.478;10.724;2024-01-30T10:16:25;24.23;;;14.68;;
77678;SDS011;66835;49.478;10.724;2024-01-30T10:18:52;23.23;;;14.77;;
77678;SDS011;66835;49.478;10.724;2024-01-30T10:21:17;22.35;;;14.35;;
77678;SDS011;66835;49.478;10.724;2024-01-30T10:23:43;23.00;;;14.15;;
77678;SDS011;66835;49.478;10.724;2024-01-30T10:26:09;21.85;;;12.52;;
77678;SDS011;66835;49.478;10.724;2024-01-30T10:28:35;24.13;;;15.02;;
77678;SDS011;66835;49.478;10.724;2024-01-30T10:31:00;21.33;;;14.33;;
77678;SDS011;66835;49.478;10.724;2024-01-30T10:33:26;21.55;;;13.40;;
77678;SDS011;66835;49.478;10.724;2024-01-30T10:35:54;25.95;;;14.63;;
77678;SDS011;66835;49.478;10.724;2024-01-30T10:38:25;23.80;;;13.32;;
77678;SDS011;66835;49.478;10.724;2024-01-30T10:40:51;19.75;;;12.82;;
77678;SDS011;66835;49.478;10.724;2024-01-30T10:43:18;23.75;;;13.98;;
77678;SDS011;66835;49.478;10.724;2024-01-30T10:45:46;19.90;;;12.93;;
77678;SDS011;66835;49.478;10.724;2024-01-30T10:48:14;20.45;;;11.60;;
77678;SDS011;66835;49.478;10.724;2024-01-30T10:50:41;18.75;;;11.27;;
77678;SDS011;66835;49.478;10.724;2024-01-30T10:53:09;15.77;;;10.88;;
77678;SDS011;66835;49.478;10.724;2024-01-30T10:55:35;21.88;;;12.85;;
77678;SDS011;66835;49.478;10.724;2024-01-30T10:58:02;23.10;;;13.93;;
77678;SDS011;66835;49.478;10.724;2024-01-30T11:00:27;20.25;;;11.55;;
77678;SDS011;66835;49.478;10.724;2024-01-30T11:02:53;20.45;;;13.05;;
77678;SDS011;66835;49.478;10.724;2024-01-30T11:05:23;21.48;;;13.27;;
77678;SDS011;66835;49.478;10.724;2024-01-30T11:07:50;21.88;;;13.30;;
77678;SDS011;66835;49.478;10.724;2024-01-30T11:10:16;20.92;;;14.20;;
77678;SDS011;66835;49.478;10.724;2024-01-30T11:12:42;19.98;;;12.70;;
77678;SDS011;66835;49.478;10.724;2024-01-30T11:15:09;23.05;;;14.00;;
77678;SDS011;66835;49.478;10.724;2024-01-30T11:17:41;18.30;;;12.15;;
77678;SDS011;66835;49.478;10.724;2024-01-30T11:20:09;20.23;;;13.20;;
77678;SDS011;66835;49.478;10.724;2024-01-30T11:22:35;19.30;;;12.65;;
77678;SDS011;66835;49.478;10.724;2024-01-30T11:25:01;20.17;;;12.70;;
77678;SDS011;66835;49.478;10.724;2024-01-30T11:27:29;20.42;;;12.95;;
77678;SDS011;66835;49.478;10.724;2024-01-30T11:30:00;17.20;;;12.10;;
77678;SDS011;66835;49.478;10.724;2024-01-30T11:32:26;19.88;;;13.55;;
77678;SDS011;66835;49.478;10.724;2024-01-30T11:34:52;19.35;;;13.48;;
77678;SDS011;66835;49.478;10.724;2024-01-30T11:37:17;19.15;;;12.50;;
77678;SDS011;66835;49.478;10.724;2024-01-30T11:39:45;20.67;;;12.57;;
77678;SDS011;66835;49.478;10.724;2024-01-30T11:42:11;20.48;;;12.77;;
77678;SDS011;66835;49.478;10.724;2024-01-30T11:44:38;21.67;;;14.27;;
77678;SDS011;66835;49.478;10.724;2024-01-30T11:47:03;19.08;;;10.90;;
77678;SDS011;66835;49.478;10.724;2024-01-30T11:49:29;18.08;;;12.02;;
77678;SDS011;66835;49.478;10.724;2024-01-30T11:51:54;22.42;;;11.32;;
77678;SDS011;66835;49.478;10.724;2024-01-30T11:54:19;17.85;;;12.13;;
77678;SDS011;66835;49.478;10.724;2024-01-30T11:56:45;30.38;;;17.05;;
77678;SDS011;66835;49.478;10.724;2024-01-30T11:59:10;20.42;;;12.65;;
77678;SDS011;66835;49.478;10.724;2024-01-30T12:01:37;16.98;;;12.05;;
77678;SDS011;66835;49.478;10.724;2024-01-30T12:04:03;25.33;;;12.70;;
77678;SDS011;66835;49.478;10.724;2024-01-30T12:06:28;15.70;;;11.38;;
77678;SDS011;66835;49.478;10.724;2024-01-30T12:08:57;16.20;;;11.93;;
77678;SDS011;66835;49.478;10.724;2024-01-30T12:11:23;18.73;;;12.38;;
77678;SDS011;66835;49.478;10.724;2024-01-30T12:13:49;18.02;;;11.40;;
77678;SDS011;66835;49.478;10.724;2024-01-30T12:16:15;20.98;;;12.25;;
77678;SDS011;66835;49.478;10.724;2024-01-30T12:18:41;21.95;;;12.38;;
77678;SDS011;66835;49.478;10.724;2024-01-30T12:21:07;17.58;;;12.75;;
77678;SDS011;66835;49.478;10.724;2024-01-30T12:23:34;18.48;;;13.75;;
77678;SDS011;66835;49.478;10.724;2024-01-30T12:26:00;16.50;;;11.52;;
77678;SDS011;66835;49.478;10.724;2024-01-30T12:28:27;16.70;;;11.77;;
77678;SDS011;66835;49.478;10.724;2024-01-30T12:30:55;20.45;;;13.02;;
77678;SDS011;66835;49.478;10.724;2024-01-30T12:33:21;23.05;;;14.02;;
77678;SDS011;66835;49.478;10.724;2024-01-30T12:35:48;22.67;;;12.98;;
77678;SDS011;66835;49.478;10.724;2024-01-30T12:38:13;21.98;;;14.65;;
77678;SDS011;66835;49.478;10.724;2024-01-30T12:40:38;24.52;;;14.85;;
77678;SDS011;66835;49.478;10.724;2024-01-30T12:43:04;22.67;;;13.30;;
77678;SDS011;66835;49.478;10.724;2024-01-30T12:45:29;16.38;;;12.05;;
77678;SDS011;66835;49.478;10.724;2024-01-30T12:47:55;18.77;;;12.65;;
77678;SDS011;66835;49.478;10.724;2024-01-30T12:50:20;21.77;;;14.13;;
77678;SDS011;66835;49.478;10.724;2024-01-30T12:52:47;18.20;;;12.75;;
77678;SDS011;66835;49.478;10.724;2024-01-30T12:55:12;21.48;;;12.98;;
77678;SDS011;66835;49.478;10.724;2024-01-30T12:57:38;18.58;;;12.20;;
77678;SDS011;66835;49.478;10.724;2024-01-30T13:00:05;23.38;;;15.00;;
77678;SDS011;66835;49.478;10.724;2024-01-30T13:02:33;22.20;;;11.80;;
77678;SDS011;66835;49.478;10.724;2024-01-30T13:05:01;18.75;;;11.98;;
77678;SDS011;66835;49.478;10.724;2024-01-30T13:07:27;19.40;;;13.57;;
77678;SDS011;66835;49.478;10.724;2024-01-30T13:09:54;19.77;;;11.70;;
77678;SDS011;66835;49.478;10.724;2024-01-30T13:12:19;20.00;;;13.07;;
77678;SDS011;66835;49.478;10.724;2024-01-30T13:14:44;18.17;;;12.05;;
77678;SDS011;66835;49.478;10.724;2024-01-30T13:17:10;20.38;;;11.95;;
77678;SDS011;66835;49.478;10.724;2024-01-30T13:19:35;17.10;;;11.43;;
77678;SDS011;66835;49.478;10.724;2024-01-30T13:22:01;17.65;;;10.43;;
77678;SDS011;66835;49.478;10.724;2024-01-30T13:24:26;16.52;;;11.27;;
77678;SDS011;66835;49.478;10.724;2024-01-30T13:26:53;18.52;;;10.75;;
77678;SDS011;66835;49.478;10.724;2024-01-30T13:29:18;19.02;;;11.57;;
77678;SDS011;66835;49.478;10.724;2024-01-30T13:31:44;16.58;;;10.98;;
77678;SDS011;66835;49.478;10.724;2024-01-30T13:34:11;20.48;;;12.57;;
77678;SDS011;66835;49.478;10.724;2024-01-30T13:36:37;19.70;;;12.55;;
77678;SDS011;66835;49.478;10.724;2024-01-30T13:39:03;20.98;;;12.20;;
77678;SDS011;66835;49.478;10.724;2024-01-30T13:41:32;20.80;;;12.90;;
77678;SDS011;66835;49.478;10.724;2024-01-30T13:43:59;18.30;;;11.45;;
77678;SDS011;66835;49.478;10.724;2024-01-30T13:46:24;20.05;;;13.50;;
77678;SDS011;66835;49.478;10.724;2024-01-30T13:48:50;18.38;;;11.98;;
77678;SDS011;66835;49.478;10.724;2024-01-30T13:51:15;17.48;;;12.50;;
77678;SDS011;66835;49.478;10.724;2024-01-30T13:53:42;19.30;;;13.60;;
77678;SDS011;66835;49.478;10.724;2024-01-30T13:56:07;21.25;;;13.02;;
77678;SDS011;66835;49.478;10.724;2024-01-30T13:58:33;19.83;;;13.88;;
77678;SDS011;66835;49.478;10.724;2024-01-30T14:01:00;19.33;;;12.43;;
77678;SDS011;66835;49.478;10.724;2024-01-30T14:03:25;17.48;;;11.63;;
77678;SDS011;66835;49.478;10.724;2024-01-30T14:05:50;17.42;;;12.10;;